sensor_id;sensor_type;location;lat;lon;timestamp;P1;durP1;ratioP1;P2;durP2;ratioP2
55655;SDS011;41530;52.382;5.270;2023-08-07T00:01:46;6.72;;;1.33;;
55655;SDS011;41530;52.382;5.270;2023-08-07T00:04:13;8.15;;;1.23;;
55655;SDS011;41530;52.382;5.270;2023-08-07T00:06:39;4.70;;;1.13;;
55655;SDS011;41530;52.382;5.270;2023-08-07T00:09:06;5.28;;;1.33;;
55655;SDS011;41530;52.382;5.270;2023-08-07T00:11:33;3.60;;;1.08;;
55655;SDS011;41530;52.382;5.270;2023-08-07T00:14:00;4.22;;;1.20;;
55655;SDS011;41530;52.382;5.270;2023-08-07T00:16:27;6.45;;;1.25;;
55655;SDS011;41530;52.382;5.270;2023-08-07T00:18:54;6.95;;;1.25;;
55655;SDS011;41530;52.382;5.270;2023-08-07T00:21:22;5.85;;;1.35;;
55655;SDS011;41530;52.382;5.270;2023-08-07T00:23:49;9.73;;;1.40;;
55655;SDS011;41530;52.382;5.270;2023-08-07T00:26:16;5.38;;;1.20;;
55655;SDS011;41530;52.382;5.270;2023-08-07T00:28:43;8.13;;;1.17;;
55655;SDS011;41530;52.382;5.270;2023-08-07T00:31:10;8.70;;;1.15;;
55655;SDS011;41530;52.382;5.270;2023-08-07T00:33:37;5.90;;;1.42;;
55655;SDS011;41530;52.382;5.270;2023-08-07T00:36:03;4.95;;;1.25;;
55655;SDS011;41530;52.382;5.270;2023-08-07T00:38:30;6.38;;;1.10;;
55655;SDS011;41530;52.382;5.270;2023-08-07T00:40:57;6.72;;;1.70;;
55655;SDS011;41530;52.382;5.270;2023-08-07T00:43:26;5.47;;;1.40;;
55655;SDS011;41530;52.382;5.270;2023-08-07T00:45:52;7.15;;;1.50;;
55655;SDS011;41530;52.382;5.270;2023-08-07T00:48:20;6.80;;;1.45;;
55655;SDS011;41530;52.382;5.270;2023-08-07T00:50:47;5.13;;;1.67;;
55655;SDS011;41530;52.382;5.270;2023-08-07T00:53:14;5.78;;;1.50;;
55655;SDS011;41530;52.382;5.270;2023-08-07T00:55:41;9.07;;;1.50;;
55655;SDS011;41530;52.382;5.270;2023-08-07T00:58:09;7.32;;;1.50;;
55655;SDS011;41530;52.382;5.270;2023-08-07T01:00:36;9.02;;;1.58;;
55655;SDS011;41530;52.382;5.270;2023-08-07T01:03:05;3.50;;;1.20;;
55655;SDS011;41530;52.382;5.270;2023-08-07T01:05:33;6.65;;;1.92;;
55655;SDS011;41530;52.382;5.270;2023-08-07T01:08:00;5.82;;;1.23;;
55655;SDS011;41530;52.382;5.270;2023-08-07T01:11:00;11.00;;;1.90;;
55655;SDS011;41530;52.382;5.270;2023-08-07T01:13:32;4.75;;;1.48;;
55655;SDS011;41530;52.382;5.270;2023-08-07T01:16:05;6.68;;;1.33;;
55655;SDS011;41530;52.382;5.270;2023-08-07T01:18:45;7.70;;;2.13;;
55655;SDS011;41530;52.382;5.270;2023-08-07T01:21:18;5.25;;;1.30;;
55655;SDS011;41530;52.382;5.270;2023-08-07T01:23:48;7.80;;;1.40;;
55655;SDS011;41530;52.382;5.270;2023-08-07T01:26:15;5.57;;;1.30;;
55655;SDS011;41530;52.382;5.270;2023-08-07T01:28:46;6.68;;;1.25;;
55655;SDS011;41530;52.382;5.270;2023-08-07T01:31:19;7.10;;;1.60;;
55655;SDS011;41530;52.382;5.270;2023-08-07T01:33:59;4.35;;;1.10;;
55655;SDS011;41530;52.382;5.270;2023-08-07T01:36:30;4.13;;;1.35;;
55655;SDS011;41530;52.382;5.270;2023-08-07T01:38:59;5.10;;;1.27;;
55655;SDS011;41530;52.382;5.270;2023-08-07T01:41:27;3.22;;;1.02;;
55655;SDS011;41530;52.382;5.270;2023-08-07T01:43:54;7.15;;;1.23;;
55655;SDS011;41530;52.382;5.270;2023-08-07T01:46:21;4.40;;;1.20;;
55655;SDS011;41530;52.382;5.270;2023-08-07T01:48:48;6.07;;;1.40;;
55655;SDS011;41530;52.382;5.270;2023-08-07T01:51:14;4.55;;;1.30;;
55655;SDS011;41530;52.382;5.270;2023-08-07T01:53:41;6.53;;;1.52;;
55655;SDS011;41530;52.382;5.270;2023-08-07T01:56:08;6.68;;;1.60;;
55655;SDS011;41530;52.382;5.270;2023-08-07T01:58:34;4.43;;;1.23;;
55655;SDS011;41530;52.382;5.270;2023-08-07T02:01:01;4.68;;;1.50;;
55655;SDS011;41530;52.382;5.270;2023-08-07T02:03:27;7.65;;;1.40;;
55655;SDS011;41530;52.382;5.270;2023-08-07T02:05:54;4.13;;;1.40;;
55655;SDS011;41530;52.382;5.270;2023-08-07T02:08:21;7.72;;;1.42;;
55655;SDS011;41530;52.382;5.270;2023-08-07T02:10:48;4.65;;;1.40;;
55655;SDS011;41530;52.382;5.270;2023-08-07T02:13:14;6.18;;;1.33;;
55655;SDS011;41530;52.382;5.270;2023-08-07T02:15:41;5.07;;;1.40;;
55655;SDS011;41530;52.382;5.270;2023-08-07T02:18:07;5.82;;;1.50;;
55655;SDS011;41530;52.382;5.270;2023-08-07T02:20:34;5.13;;;1.27;;
55655;SDS011;41530;52.382;5.270;2023-08-07T02:23:01;5.35;;;1.30;;
55655;SDS011;41530;52.382;5.270;2023-08-07T02:25:27;4.18;;;1.38;;
55655;SDS011;41530;52.382;5.270;2023-08-07T02:27:54;4.47;;;1.30;;
55655;SDS011;41530;52.382;5.270;2023-08-07T02:30:21;3.92;;;1.38;;
55655;SDS011;41530;52.382;5.270;2023-08-07T02:32:47;2.97;;;1.30;;
55655;SDS011;41530;52.382;5.270;2023-08-07T02:35:14;6.63;;;1.40;;
55655;SDS011;41530;52.382;5.270;2023-08-07T02:37:41;8.88;;;1.45;;
55655;SDS011;41530;52.382;5.270;2023-08-07T02:40:07;4.22;;;1.10;;
55655;SDS011;41530;52.382;5.270;2023-08-07T02:42:34;10.38;;;1.42;;
55655;SDS011;41530;52.382;5.270;2023-08-07T02:45:01;6.20;;;1.50;;
55655;SDS011;41530;52.382;5.270;2023-08-07T02:47:28;2.78;;;1.20;;
55655;SDS011;41530;52.382;5.270;2023-08-07T02:49:54;8.45;;;1.48;;
55655;SDS011;41530;52.382;5.270;2023-08-07T02:52:21;5.55;;;1.58;;
55655;SDS011;41530;52.382;5.270;2023-08-07T02:54:48;5.47;;;1.48;;
55655;SDS011;41530;52.382;5.270;2023-08-07T02:57:14;4.00;;;1.27;;
55655;SDS011;41530;52.382;5.270;2023-08-07T02:59:41;4.57;;;1.17;;
55655;SDS011;41530;52.382;5.270;2023-08-07T03:02:07;4.30;;;1.35;;
55655;SDS011;41530;52.382;5.270;2023-08-07T03:04:34;9.30;;;1.25;;
55655;SDS011;41530;52.382;5.270;2023-08-07T03:07:00;6.43;;;1.25;;
55655;SDS011;41530;52.382;5.270;2023-08-07T03:09:28;7.35;;;1.30;;
55655;SDS011;41530;52.382;5.270;2023-08-07T03:11:54;4.45;;;1.42;;
55655;SDS011;41530;52.382;5.270;2023-08-07T03:14:21;6.40;;;1.38;;
55655;SDS011;41530;52.382;5.270;2023-08-07T03:16:48;5.60;;;1.40;;
55655;SDS011;41530;52.382;5.270;2023-08-07T03:19:14;5.55;;;1.10;;
55655;SDS011;41530;52.382;5.270;2023-08-07T03:21:41;4.30;;;1.30;;
55655;SDS011;41530;52.382;5.270;2023-08-07T03:24:08;3.75;;;1.42;;
55655;SDS011;41530;52.382;5.270;2023-08-07T03:26:38;5.03;;;1.70;;
55655;SDS011;41530;52.382;5.270;2023-08-07T03:29:05;4.93;;;1.48;;
55655;SDS011;41530;52.382;5.270;2023-08-07T03:31:31;10.45;;;1.88;;
55655;SDS011;41530;52.382;5.270;2023-08-07T03:33:58;3.92;;;1.45;;
55655;SDS011;41530;52.382;5.270;2023-08-07T03:36:24;6.75;;;1.60;;
55655;SDS011;41530;52.382;5.270;2023-08-07T03:38:51;4.90;;;1.60;;
55655;SDS011;41530;52.382;5.270;2023-08-07T03:41:18;5.30;;;1.60;;
55655;SDS011;41530;52.382;5.270;2023-08-07T03:43:45;6.15;;;1.45;;
55655;SDS011;41530;52.382;5.270;2023-08-07T03:46:13;3.97;;;1.20;;
55655;SDS011;41530;52.382;5.270;2023-08-07T03:48:39;4.97;;;1.40;;
55655;SDS011;41530;52.382;5.270;2023-08-07T03:51:06;7.00;;;1.55;;
55655;SDS011;41530;52.382;5.270;2023-08-07T03:53:37;3.53;;;1.15;;
55655;SDS011;41530;52.382;5.270;2023-08-07T03:56:04;5.47;;;1.50;;
55655;SDS011;41530;52.382;5.270;2023-08-07T03:58:30;8.45;;;1.90;;
55655;SDS011;41530;52.382;5.270;2023-08-07T04:00:57;5.70;;;1.50;;
55655;SDS011;41530;52.382;5.270;2023-08-07T04:03:24;5.20;;;1.33;;
55655;SDS011;41530;52.382;5.270;2023-08-07T04:05:53;5.97;;;1.55;;
55655;SDS011;41530;52.382;5.270;2023-08-07T04:08:21;6.22;;;1.70;;
55655;SDS011;41530;52.382;5.270;2023-08-07T04:10:58;9.32;;;1.75;;
55655;SDS011;41530;52.382;5.270;2023-08-07T04:13:25;7.22;;;1.70;;
55655;SDS011;41530;52.382;5.270;2023-08-07T04:15:53;8.93;;;1.40;;
55655;SDS011;41530;52.382;5.270;2023-08-07T04:18:19;6.53;;;1.73;;
55655;SDS011;41530;52.382;5.270;2023-08-07T04:20:50;6.60;;;1.52;;
55655;SDS011;41530;52.382;5.270;2023-08-07T04:23:18;6.75;;;1.90;;
55655;SDS011;41530;52.382;5.270;2023-08-07T04:25:45;5.22;;;1.65;;
55655;SDS011;41530;52.382;5.270;2023-08-07T04:28:13;5.10;;;1.42;;
55655;SDS011;41530;52.382;5.270;2023-08-07T04:30:40;7.38;;;1.40;;
55655;SDS011;41530;52.382;5.270;2023-08-07T04:33:07;5.43;;;1.90;;
55655;SDS011;41530;52.382;5.270;2023-08-07T04:35:34;5.90;;;1.60;;
55655;SDS011;41530;52.382;5.270;2023-08-07T04:38:01;5.88;;;1.48;;
55655;SDS011;41530;52.382;5.270;2023-08-07T04:40:28;6.25;;;1.63;;
55655;SDS011;41530;52.382;5.270;2023-08-07T04:42:56;6.18;;;1.70;;
55655;SDS011;41530;52.382;5.270;2023-08-07T04:45:22;6.55;;;1.40;;
55655;SDS011;41530;52.382;5.270;2023-08-07T04:47:49;8.13;;;1.52;;
55655;SDS011;41530;52.382;5.270;2023-08-07T04:50:17;6.78;;;1.48;;
55655;SDS011;41530;52.382;5.270;2023-08-07T04:52:44;6.68;;;1.52;;
55655;SDS011;41530;52.382;5.270;2023-08-07T04:55:10;4.35;;;1.40;;
55655;SDS011;41530;52.382;5.270;2023-08-07T04:57:37;11.27;;;1.50;;
55655;SDS011;41530;52.382;5.270;2023-08-07T05:00:04;5.10;;;1.52;;
55655;SDS011;41530;52.382;5.270;2023-08-07T05:02:31;5.22;;;1.73;;
55655;SDS011;41530;52.382;5.270;2023-08-07T05:04:58;6.97;;;1.48;;
55655;SDS011;41530;52.382;5.270;2023-08-07T05:07:25;5.60;;;1.67;;
55655;SDS011;41530;52.382;5.270;2023-08-07T05:09:52;4.38;;;1.58;;
55655;SDS011;41530;52.382;5.270;2023-08-07T05:12:18;5.93;;;1.77;;
55655;SDS011;41530;52.382;5.270;2023-08-07T05:14:45;4.97;;;1.63;;
55655;SDS011;41530;52.382;5.270;2023-08-07T05:17:11;5.35;;;1.55;;
55655;SDS011;41530;52.382;5.270;2023-08-07T05:19:39;5.78;;;1.50;;
55655;SDS011;41530;52.382;5.270;2023-08-07T05:22:05;8.75;;;2.15;;
55655;SDS011;41530;52.382;5.270;2023-08-07T05:24:32;8.27;;;2.03;;
55655;SDS011;41530;52.382;5.270;2023-08-07T05:27:06;7.05;;;1.73;;
55655;SDS011;41530;52.382;5.270;2023-08-07T05:29:35;9.00;;;2.13;;
55655;SDS011;41530;52.382;5.270;2023-08-07T05:32:10;8.63;;;2.40;;
55655;SDS011;41530;52.382;5.270;2023-08-07T05:34:37;6.40;;;2.10;;
55655;SDS011;41530;52.382;5.270;2023-08-07T05:37:05;11.68;;;2.20;;
55655;SDS011;41530;52.382;5.270;2023-08-07T05:39:32;10.70;;;2.58;;
55655;SDS011;41530;52.382;5.270;2023-08-07T05:41:59;6.25;;;2.00;;
55655;SDS011;41530;52.382;5.270;2023-08-07T05:44:26;12.55;;;2.30;;
55655;SDS011;41530;52.382;5.270;2023-08-07T05:46:53;9.88;;;2.10;;
55655;SDS011;41530;52.382;5.270;2023-08-07T05:49:20;20.90;;;2.55;;
55655;SDS011;41530;52.382;5.270;2023-08-07T05:51:50;10.15;;;2.45;;
55655;SDS011;41530;52.382;5.270;2023-08-07T05:54:17;11.50;;;2.17;;
55655;SDS011;41530;52.382;5.270;2023-08-07T05:56:44;5.93;;;1.92;;
55655;SDS011;41530;52.382;5.270;2023-08-07T05:59:10;6.45;;;2.00;;
55655;SDS011;41530;52.382;5.270;2023-08-07T06:01:37;11.45;;;2.30;;
55655;SDS011;41530;52.382;5.270;2023-08-07T06:04:04;13.52;;;2.15;;
55655;SDS011;41530;52.382;5.270;2023-08-07T06:06:30;7.38;;;2.08;;
55655;SDS011;41530;52.382;5.270;2023-08-07T06:09:01;12.20;;;2.03;;
55655;SDS011;41530;52.382;5.270;2023-08-07T06:11:30;12.18;;;2.15;;
55655;SDS011;41530;52.382;5.270;2023-08-07T06:13:57;15.05;;;2.75;;
55655;SDS011;41530;52.382;5.270;2023-08-07T06:16:24;6.05;;;1.95;;
55655;SDS011;41530;52.382;5.270;2023-08-07T06:18:51;6.38;;;2.15;;
55655;SDS011;41530;52.382;5.270;2023-08-07T06:21:20;7.20;;;2.08;;
55655;SDS011;41530;52.382;5.270;2023-08-07T06:23:47;9.45;;;2.13;;
55655;SDS011;41530;52.382;5.270;2023-08-07T06:26:14;7.18;;;2.05;;
55655;SDS011;41530;52.382;5.270;2023-08-07T06:28:41;8.10;;;2.05;;
55655;SDS011;41530;52.382;5.270;2023-08-07T06:31:09;8.98;;;1.80;;
55655;SDS011;41530;52.382;5.270;2023-08-07T06:33:37;10.77;;;2.47;;
55655;SDS011;41530;52.382;5.270;2023-08-07T06:36:04;7.72;;;2.17;;
55655;SDS011;41530;52.382;5.270;2023-08-07T06:38:31;5.00;;;1.73;;
55655;SDS011;41530;52.382;5.270;2023-08-07T06:40:58;9.23;;;2.42;;
55655;SDS011;41530;52.382;5.270;2023-08-07T06:43:24;5.20;;;1.95;;
55655;SDS011;41530;52.382;5.270;2023-08-07T06:45:52;8.45;;;2.03;;
55655;SDS011;41530;52.382;5.270;2023-08-07T06:48:20;5.35;;;1.70;;
55655;SDS011;41530;52.382;5.270;2023-08-07T06:50:47;6.20;;;1.85;;
55655;SDS011;41530;52.382;5.270;2023-08-07T06:53:14;10.43;;;2.40;;
55655;SDS011;41530;52.382;5.270;2023-08-07T06:55:41;7.45;;;2.10;;
55655;SDS011;41530;52.382;5.270;2023-08-07T06:58:08;8.32;;;2.08;;
55655;SDS011;41530;52.382;5.270;2023-08-07T07:00:35;7.45;;;1.67;;
55655;SDS011;41530;52.382;5.270;2023-08-07T07:03:03;5.03;;;1.70;;
55655;SDS011;41530;52.382;5.270;2023-08-07T07:05:30;7.93;;;1.85;;
55655;SDS011;41530;52.382;5.270;2023-08-07T07:07:57;4.13;;;1.70;;
55655;SDS011;41530;52.382;5.270;2023-08-07T07:10:24;10.25;;;2.03;;
55655;SDS011;41530;52.382;5.270;2023-08-07T07:12:51;6.03;;;1.70;;
55655;SDS011;41530;52.382;5.270;2023-08-07T07:15:18;9.98;;;1.67;;
55655;SDS011;41530;52.382;5.270;2023-08-07T07:17:45;4.93;;;1.65;;
55655;SDS011;41530;52.382;5.270;2023-08-07T07:20:12;7.10;;;1.95;;
55655;SDS011;41530;52.382;5.270;2023-08-07T07:22:38;5.60;;;1.70;;
55655;SDS011;41530;52.382;5.270;2023-08-07T07:25:05;7.72;;;1.95;;
55655;SDS011;41530;52.382;5.270;2023-08-07T07:27:32;4.70;;;1.58;;
55655;SDS011;41530;52.382;5.270;2023-08-07T07:29:59;4.43;;;1.67;;
55655;SDS011;41530;52.382;5.270;2023-08-07T07:32:25;8.25;;;1.77;;
55655;SDS011;41530;52.382;5.270;2023-08-07T07:34:52;4.53;;;1.55;;
55655;SDS011;41530;52.382;5.270;2023-08-07T07:37:19;4.05;;;1.27;;
55655;SDS011;41530;52.382;5.270;2023-08-07T07:39:48;4.32;;;1.90;;
55655;SDS011;41530;52.382;5.270;2023-08-07T07:42:15;7.50;;;1.73;;
55655;SDS011;41530;52.382;5.270;2023-08-07T07:44:41;4.78;;;1.65;;
55655;SDS011;41530;52.382;5.270;2023-08-07T07:47:08;4.78;;;1.60;;
55655;SDS011;41530;52.382;5.270;2023-08-07T07:49:38;4.28;;;1.60;;
55655;SDS011;41530;52.382;5.270;2023-08-07T07:52:05;4.60;;;1.55;;
55655;SDS011;41530;52.382;5.270;2023-08-07T07:54:33;4.63;;;1.60;;
55655;SDS011;41530;52.382;5.270;2023-08-07T07:57:01;4.22;;;1.50;;
55655;SDS011;41530;52.382;5.270;2023-08-07T07:59:27;3.53;;;1.33;;
55655;SDS011;41530;52.382;5.270;2023-08-07T08:01:54;5.18;;;1.80;;
55655;SDS011;41530;52.382;5.270;2023-08-07T08:04:21;4.80;;;1.90;;
55655;SDS011;41530;52.382;5.270;2023-08-07T08:06:48;4.50;;;1.63;;
55655;SDS011;41530;52.382;5.270;2023-08-07T08:09:15;3.28;;;1.45;;
55655;SDS011;41530;52.382;5.270;2023-08-07T08:11:42;4.35;;;1.40;;
55655;SDS011;41530;52.382;5.270;2023-08-07T08:14:08;5.10;;;1.60;;
55655;SDS011;41530;52.382;5.270;2023-08-07T08:16:35;4.10;;;1.70;;
55655;SDS011;41530;52.382;5.270;2023-08-07T08:19:02;2.92;;;1.40;;
55655;SDS011;41530;52.382;5.270;2023-08-07T08:21:29;4.38;;;1.52;;
55655;SDS011;41530;52.382;5.270;2023-08-07T08:23:57;2.50;;;1.45;;
55655;SDS011;41530;52.382;5.270;2023-08-07T08:26:24;4.10;;;1.42;;
55655;SDS011;41530;52.382;5.270;2023-08-07T08:28:50;6.63;;;1.67;;
55655;SDS011;41530;52.382;5.270;2023-08-07T08:31:17;2.88;;;1.27;;
55655;SDS011;41530;52.382;5.270;2023-08-07T08:33:44;2.25;;;1.15;;
55655;SDS011;41530;52.382;5.270;2023-08-07T08:36:11;3.20;;;1.50;;
55655;SDS011;41530;52.382;5.270;2023-08-07T08:38:37;3.72;;;1.60;;
55655;SDS011;41530;52.382;5.270;2023-08-07T08:41:04;4.38;;;1.40;;
55655;SDS011;41530;52.382;5.270;2023-08-07T08:43:35;3.38;;;1.60;;
55655;SDS011;41530;52.382;5.270;2023-08-07T08:46:04;3.08;;;1.52;;
55655;SDS011;41530;52.382;5.270;2023-08-07T08:48:34;3.38;;;1.60;;
55655;SDS011;41530;52.382;5.270;2023-08-07T08:51:04;3.80;;;1.30;;
55655;SDS011;41530;52.382;5.270;2023-08-07T08:53:32;1.75;;;1.10;;
55655;SDS011;41530;52.382;5.270;2023-08-07T08:56:00;3.03;;;1.48;;
55655;SDS011;41530;52.382;5.270;2023-08-07T08:58:28;2.75;;;1.20;;
55655;SDS011;41530;52.382;5.270;2023-08-07T09:00:55;2.15;;;1.38;;
55655;SDS011;41530;52.382;5.270;2023-08-07T09:03:24;4.10;;;1.25;;
55655;SDS011;41530;52.382;5.270;2023-08-07T09:05:52;2.03;;;1.10;;
55655;SDS011;41530;52.382;5.270;2023-08-07T09:08:22;3.00;;;1.20;;
55655;SDS011;41530;52.382;5.270;2023-08-07T09:10:52;2.30;;;1.08;;
55655;SDS011;41530;52.382;5.270;2023-08-07T09:13:20;2.17;;;1.20;;
55655;SDS011;41530;52.382;5.270;2023-08-07T09:15:50;3.60;;;1.20;;
55655;SDS011;41530;52.382;5.270;2023-08-07T09:18:17;2.08;;;1.10;;
55655;SDS011;41530;52.382;5.270;2023-08-07T09:20:47;2.67;;;1.20;;
55655;SDS011;41530;52.382;5.270;2023-08-07T09:23:15;2.25;;;1.10;;
55655;SDS011;41530;52.382;5.270;2023-08-07T09:25:45;3.95;;;1.40;;
55655;SDS011;41530;52.382;5.270;2023-08-07T09:28:12;3.40;;;1.40;;
55655;SDS011;41530;52.382;5.270;2023-08-07T09:30:39;3.85;;;1.42;;
55655;SDS011;41530;52.382;5.270;2023-08-07T09:33:11;2.30;;;1.40;;
55655;SDS011;41530;52.382;5.270;2023-08-07T09:35:37;5.13;;;2.33;;
55655;SDS011;41530;52.382;5.270;2023-08-07T09:38:05;3.67;;;1.20;;
55655;SDS011;41530;52.382;5.270;2023-08-07T09:40:34;3.33;;;0.98;;
55655;SDS011;41530;52.382;5.270;2023-08-07T09:43:00;3.70;;;1.10;;
55655;SDS011;41530;52.382;5.270;2023-08-07T09:45:28;2.42;;;1.10;;
55655;SDS011;41530;52.382;5.270;2023-08-07T09:47:57;3.47;;;1.13;;
55655;SDS011;41530;52.382;5.270;2023-08-07T09:50:28;2.97;;;1.08;;
55655;SDS011;41530;52.382;5.270;2023-08-07T09:52:55;2.45;;;1.20;;
55655;SDS011;41530;52.382;5.270;2023-08-07T09:55:24;2.78;;;1.15;;
55655;SDS011;41530;52.382;5.270;2023-08-07T09:57:52;2.10;;;1.30;;
55655;SDS011;41530;52.382;5.270;2023-08-07T10:00:19;2.40;;;1.10;;
55655;SDS011;41530;52.382;5.270;2023-08-07T10:02:47;2.42;;;1.50;;
55655;SDS011;41530;52.382;5.270;2023-08-07T10:05:15;3.75;;;1.40;;
55655;SDS011;41530;52.382;5.270;2023-08-07T10:07:42;3.30;;;1.15;;
55655;SDS011;41530;52.382;5.270;2023-08-07T10:10:09;4.45;;;1.10;;
55655;SDS011;41530;52.382;5.270;2023-08-07T10:12:37;1.85;;;1.20;;
55655;SDS011;41530;52.382;5.270;2023-08-07T10:15:05;1.70;;;1.10;;
55655;SDS011;41530;52.382;5.270;2023-08-07T10:17:33;2.80;;;1.30;;
55655;SDS011;41530;52.382;5.270;2023-08-07T10:20:00;2.25;;;1.23;;
55655;SDS011;41530;52.382;5.270;2023-08-07T10:22:28;2.78;;;1.33;;
55655;SDS011;41530;52.382;5.270;2023-08-07T10:24:57;1.88;;;1.17;;
55655;SDS011;41530;52.382;5.270;2023-08-07T10:27:29;2.58;;;1.40;;
55655;SDS011;41530;52.382;5.270;2023-08-07T10:29:59;2.15;;;1.13;;
55655;SDS011;41530;52.382;5.270;2023-08-07T10:32:30;2.78;;;1.20;;
55655;SDS011;41530;52.382;5.270;2023-08-07T10:35:02;2.15;;;1.00;;
55655;SDS011;41530;52.382;5.270;2023-08-07T10:37:32;2.33;;;1.00;;
55655;SDS011;41530;52.382;5.270;2023-08-07T10:40:05;3.45;;;1.00;;
55655;SDS011;41530;52.382;5.270;2023-08-07T10:42:52;2.65;;;1.15;;
55655;SDS011;41530;52.382;5.270;2023-08-07T10:45:23;2.38;;;1.15;;
55655;SDS011;41530;52.382;5.270;2023-08-07T10:50:28;1.83;;;1.23;;
55655;SDS011;41530;52.382;5.270;2023-08-07T10:52:56;1.85;;;1.05;;
55655;SDS011;41530;52.382;5.270;2023-08-07T10:55:22;3.15;;;1.27;;
55655;SDS011;41530;52.382;5.270;2023-08-07T10:57:50;1.98;;;1.00;;
55655;SDS011;41530;52.382;5.270;2023-08-07T11:00:17;2.65;;;1.30;;
55655;SDS011;41530;52.382;5.270;2023-08-07T11:02:52;2.58;;;1.50;;
55655;SDS011;41530;52.382;5.270;2023-08-07T11:05:18;2.80;;;1.00;;
55655;SDS011;41530;52.382;5.270;2023-08-07T11:07:46;1.75;;;0.95;;
55655;SDS011;41530;52.382;5.270;2023-08-07T11:10:13;1.88;;;1.00;;
55655;SDS011;41530;52.382;5.270;2023-08-07T11:12:42;2.88;;;1.20;;
55655;SDS011;41530;52.382;5.270;2023-08-07T11:15:11;2.15;;;0.93;;
55655;SDS011;41530;52.382;5.270;2023-08-07T11:17:39;2.42;;;1.10;;
55655;SDS011;41530;52.382;5.270;2023-08-07T11:20:08;1.75;;;1.00;;
55655;SDS011;41530;52.382;5.270;2023-08-07T11:22:37;1.67;;;0.95;;
55655;SDS011;41530;52.382;5.270;2023-08-07T11:25:04;1.92;;;1.10;;
55655;SDS011;41530;52.382;5.270;2023-08-07T11:27:31;2.35;;;1.08;;
55655;SDS011;41530;52.382;5.270;2023-08-07T11:29:58;2.20;;;1.23;;
55655;SDS011;41530;52.382;5.270;2023-08-07T11:32:26;1.83;;;1.10;;
55655;SDS011;41530;52.382;5.270;2023-08-07T11:34:53;2.17;;;1.15;;
55655;SDS011;41530;52.382;5.270;2023-08-07T11:37:20;1.75;;;0.85;;
55655;SDS011;41530;52.382;5.270;2023-08-07T11:39:46;2.22;;;1.10;;
55655;SDS011;41530;52.382;5.270;2023-08-07T11:42:13;1.92;;;0.88;;
55655;SDS011;41530;52.382;5.270;2023-08-07T11:44:40;1.33;;;0.90;;
55655;SDS011;41530;52.382;5.270;2023-08-07T11:47:08;1.65;;;1.08;;
55655;SDS011;41530;52.382;5.270;2023-08-07T11:49:36;1.95;;;1.20;;
55655;SDS011;41530;52.382;5.270;2023-08-07T11:52:03;1.08;;;0.98;;
55655;SDS011;41530;52.382;5.270;2023-08-07T11:54:30;3.22;;;1.05;;
55655;SDS011;41530;52.382;5.270;2023-08-07T11:56:57;2.08;;;1.00;;
55655;SDS011;41530;52.382;5.270;2023-08-07T11:59:24;1.98;;;1.23;;
55655;SDS011;41530;52.382;5.270;2023-08-07T12:01:52;2.42;;;1.00;;
55655;SDS011;41530;52.382;5.270;2023-08-07T12:04:19;4.53;;;1.23;;
55655;SDS011;41530;52.382;5.270;2023-08-07T12:06:53;3.05;;;1.10;;
55655;SDS011;41530;52.382;5.270;2023-08-07T12:09:21;2.65;;;1.35;;
55655;SDS011;41530;52.382;5.270;2023-08-07T12:11:48;1.80;;;1.00;;
55655;SDS011;41530;52.382;5.270;2023-08-07T12:14:15;1.45;;;0.85;;
55655;SDS011;41530;52.382;5.270;2023-08-07T12:16:44;1.60;;;0.85;;
55655;SDS011;41530;52.382;5.270;2023-08-07T12:19:14;3.70;;;1.00;;
55655;SDS011;41530;52.382;5.270;2023-08-07T12:21:42;2.45;;;1.00;;
55655;SDS011;41530;52.382;5.270;2023-08-07T12:24:09;1.40;;;0.90;;
55655;SDS011;41530;52.382;5.270;2023-08-07T12:26:36;1.48;;;1.15;;
55655;SDS011;41530;52.382;5.270;2023-08-07T12:29:03;2.58;;;0.98;;
55655;SDS011;41530;52.382;5.270;2023-08-07T12:31:29;1.88;;;1.02;;
55655;SDS011;41530;52.382;5.270;2023-08-07T12:33:56;2.15;;;0.90;;
55655;SDS011;41530;52.382;5.270;2023-08-07T12:36:43;1.75;;;1.17;;
55655;SDS011;41530;52.382;5.270;2023-08-07T12:39:09;1.42;;;1.08;;
55655;SDS011;41530;52.382;5.270;2023-08-07T12:41:36;1.52;;;0.88;;
55655;SDS011;41530;52.382;5.270;2023-08-07T12:44:05;3.67;;;1.33;;
55655;SDS011;41530;52.382;5.270;2023-08-07T12:46:32;2.10;;;1.10;;
55655;SDS011;41530;52.382;5.270;2023-08-07T12:49:02;2.15;;;1.00;;
55655;SDS011;41530;52.382;5.270;2023-08-07T12:51:29;2.45;;;1.00;;
55655;SDS011;41530;52.382;5.270;2023-08-07T12:53:55;1.70;;;0.88;;
55655;SDS011;41530;52.382;5.270;2023-08-07T12:56:22;1.30;;;1.00;;
55655;SDS011;41530;52.382;5.270;2023-08-07T12:58:49;2.17;;;1.10;;
55655;SDS011;41530;52.382;5.270;2023-08-07T13:01:16;2.17;;;1.15;;
55655;SDS011;41530;52.382;5.270;2023-08-07T13:03:43;3.15;;;1.13;;
55655;SDS011;41530;52.382;5.270;2023-08-07T13:06:10;1.98;;;0.90;;
55655;SDS011;41530;52.382;5.270;2023-08-07T13:08:38;4.60;;;1.08;;
55655;SDS011;41530;52.382;5.270;2023-08-07T13:11:04;2.33;;;1.20;;
55655;SDS011;41530;52.382;5.270;2023-08-07T13:13:31;1.65;;;1.00;;
55655;SDS011;41530;52.382;5.270;2023-08-07T13:15:58;3.35;;;1.02;;
55655;SDS011;41530;52.382;5.270;2023-08-07T13:18:24;2.10;;;1.17;;
55655;SDS011;41530;52.382;5.270;2023-08-07T13:20:51;1.65;;;1.17;;
55655;SDS011;41530;52.382;5.270;2023-08-07T13:23:18;1.45;;;0.90;;
55655;SDS011;41530;52.382;5.270;2023-08-07T13:25:44;2.22;;;0.98;;
55655;SDS011;41530;52.382;5.270;2023-08-07T13:28:11;2.00;;;1.02;;
55655;SDS011;41530;52.382;5.270;2023-08-07T13:30:37;3.50;;;1.17;;
55655;SDS011;41530;52.382;5.270;2023-08-07T13:33:04;2.55;;;1.00;;
55655;SDS011;41530;52.382;5.270;2023-08-07T13:35:31;2.33;;;1.00;;
55655;SDS011;41530;52.382;5.270;2023-08-07T13:37:59;1.52;;;1.00;;
55655;SDS011;41530;52.382;5.270;2023-08-07T13:40:26;3.08;;;1.10;;
55655;SDS011;41530;52.382;5.270;2023-08-07T13:42:52;1.33;;;0.93;;
55655;SDS011;41530;52.382;5.270;2023-08-07T13:45:19;3.00;;;1.10;;
55655;SDS011;41530;52.382;5.270;2023-08-07T13:47:46;2.78;;;1.00;;
55655;SDS011;41530;52.382;5.270;2023-08-07T13:50:13;2.85;;;1.10;;
55655;SDS011;41530;52.382;5.270;2023-08-07T13:52:41;1.13;;;1.00;;
55655;SDS011;41530;52.382;5.270;2023-08-07T13:55:07;2.83;;;1.48;;
55655;SDS011;41530;52.382;5.270;2023-08-07T13:57:36;1.95;;;0.90;;
55655;SDS011;41530;52.382;5.270;2023-08-07T14:00:03;2.28;;;1.08;;
55655;SDS011;41530;52.382;5.270;2023-08-07T14:02:30;1.63;;;0.90;;
55655;SDS011;41530;52.382;5.270;2023-08-07T14:04:58;3.30;;;1.55;;
55655;SDS011;41530;52.382;5.270;2023-08-07T14:07:24;3.60;;;0.77;;
55655;SDS011;41530;52.382;5.270;2023-08-07T14:09:51;3.17;;;1.02;;
55655;SDS011;41530;52.382;5.270;2023-08-07T14:12:17;2.05;;;0.90;;
55655;SDS011;41530;52.382;5.270;2023-08-07T14:14:44;2.95;;;0.90;;
55655;SDS011;41530;52.382;5.270;2023-08-07T14:17:11;1.15;;;0.90;;
55655;SDS011;41530;52.382;5.270;2023-08-07T14:19:37;1.65;;;1.00;;
55655;SDS011;41530;52.382;5.270;2023-08-07T14:22:04;1.85;;;1.00;;
55655;SDS011;41530;52.382;5.270;2023-08-07T14:24:31;2.42;;;0.95;;
55655;SDS011;41530;52.382;5.270;2023-08-07T14:26:57;1.50;;;0.88;;
55655;SDS011;41530;52.382;5.270;2023-08-07T14:29:24;2.15;;;1.40;;
55655;SDS011;41530;52.382;5.270;2023-08-07T14:31:51;3.00;;;1.00;;
55655;SDS011;41530;52.382;5.270;2023-08-07T14:34:17;3.17;;;0.93;;
55655;SDS011;41530;52.382;5.270;2023-08-07T14:36:44;1.73;;;0.98;;
55655;SDS011;41530;52.382;5.270;2023-08-07T14:39:11;3.55;;;0.88;;
55655;SDS011;41530;52.382;5.270;2023-08-07T14:41:37;2.00;;;0.80;;
55655;SDS011;41530;52.382;5.270;2023-08-07T14:44:04;2.63;;;1.08;;
55655;SDS011;41530;52.382;5.270;2023-08-07T14:46:30;2.08;;;1.05;;
55655;SDS011;41530;52.382;5.270;2023-08-07T14:48:57;3.40;;;1.00;;
55655;SDS011;41530;52.382;5.270;2023-08-07T14:51:24;1.40;;;0.90;;
55655;SDS011;41530;52.382;5.270;2023-08-07T14:53:50;1.58;;;0.95;;